East Palmyra, New York
Current Conditions -  °F | °C
As of 12:54 PM on Thursday 30 Oct 2014 (Local Time) from KROC Reporting Station
Overcast Overcast  
Wind Chill: 42°   Ceiling: 3000
Heat Index: 46°   Visibility: 10mi
Dew Point: 34°   Wind: 7mph
Humidity: 63%   Direction: 290°WNW
Pressure: 30.07"   Gusts: NA
Location:  43.0687°N, 77.0977°W
Report Text: KROC 301654Z 29006KT 10SM BKN030 OVC037 08/01 A3007 RMK AO2 SLP188 T00780011
Loading
Personal Weather Stations






























Interactive Weather Map
Tropical Storm Tracking
New forecast layout! Learn more

10-Day Weather Forecast

Advertisements
Track Severe Weather on mobile